createdAt,value
2018-02-13T00:01:17.568Z,7.30
2018-02-13T00:03:43.930Z,6.93
2018-02-13T00:06:10.286Z,7.27
2018-02-13T00:08:36.647Z,6.53
2018-02-13T00:11:03.761Z,7.73
2018-02-13T00:13:30.331Z,6.70
2018-02-13T00:15:57.446Z,8.27
2018-02-13T00:18:23.821Z,7.03
2018-02-13T00:20:50.226Z,6.73
2018-02-13T00:23:16.731Z,7.10
2018-02-13T00:25:43.805Z,6.90
2018-02-13T00:28:10.179Z,7.40
2018-02-13T00:30:36.574Z,7.87
2018-02-13T00:33:02.946Z,7.50
2018-02-13T00:35:29.314Z,7.60
2018-02-13T00:37:55.676Z,6.83
2018-02-13T00:40:22.038Z,7.73
2018-02-13T00:42:48.426Z,8.83
2018-02-13T00:45:14.790Z,8.23
2018-02-13T00:47:41.166Z,7.97
2018-02-13T00:50:07.542Z,8.50
2018-02-13T00:52:34.904Z,8.10
2018-02-13T00:55:01.285Z,8.23
2018-02-13T00:57:27.638Z,9.00
2018-02-13T00:59:54.004Z,7.67
2018-02-13T01:02:20.382Z,8.83
2018-02-13T01:04:46.765Z,9.07
2018-02-13T01:07:13.123Z,7.87
2018-02-13T01:09:39.490Z,8.33
2018-02-13T01:12:05.869Z,9.13
2018-02-13T01:14:32.288Z,9.10
2018-02-13T01:16:59.386Z,9.53
2018-02-13T01:19:25.754Z,10.13
2018-02-13T01:21:52.854Z,9.43
2018-02-13T01:24:19.210Z,9.03
2018-02-13T01:26:45.585Z,7.87
2018-02-13T01:29:11.930Z,8.20
2018-02-13T01:31:38.289Z,8.23
2018-02-13T01:34:04.983Z,8.37
2018-02-13T01:36:31.348Z,8.50
2018-02-13T01:38:57.767Z,7.90
2018-02-13T01:41:24.120Z,7.63
2018-02-13T01:43:50.492Z,8.10
2018-02-13T01:46:17.584Z,7.60
2018-02-13T01:48:43.944Z,7.43
2018-02-13T01:51:10.323Z,8.27
2018-02-13T01:53:36.703Z,9.40
2018-02-13T01:56:03.062Z,8.73
2018-02-13T01:58:29.422Z,8.63
2018-02-13T02:00:55.817Z,8.60
2018-02-13T02:03:22.937Z,8.00
2018-02-13T02:05:49.290Z,8.43
2018-02-13T02:08:17.122Z,9.23
2018-02-13T02:10:43.470Z,9.20
2018-02-13T02:13:09.835Z,8.50
2018-02-13T02:15:36.936Z,8.40
2018-02-13T02:18:03.354Z,8.17
2018-02-13T02:20:29.718Z,8.53
2018-02-13T02:22:56.111Z,7.97
2018-02-13T02:25:22.481Z,8.73
2018-02-13T02:27:48.840Z,7.97
2018-02-13T02:30:15.206Z,8.80
2018-02-13T02:32:41.576Z,8.50
2018-02-13T02:35:08.020Z,9.40
2018-02-13T02:37:34.394Z,8.90
2018-02-13T02:40:00.750Z,8.70
2018-02-13T02:42:48.007Z,8.53
2018-02-13T02:45:14.373Z,8.53
2018-02-13T02:47:40.723Z,8.37
2018-02-13T02:50:07.091Z,8.57
2018-02-13T02:52:33.463Z,9.90
2018-02-13T02:54:59.821Z,9.10
2018-02-13T02:57:26.185Z,8.07
2018-02-13T02:59:52.605Z,8.73
2018-02-13T03:02:18.938Z,9.03
2018-02-13T03:04:46.788Z,10.40
2018-02-13T03:07:13.148Z,9.00
2018-02-13T03:09:39.517Z,10.33
2018-02-13T03:12:05.895Z,9.37
2018-02-13T03:14:32.266Z,9.07
2018-02-13T03:16:59.361Z,9.05
2018-02-13T03:19:26.531Z,10.40
2018-02-13T03:21:54.455Z,10.68
2018-02-13T03:24:20.825Z,9.73
2018-02-13T03:26:47.209Z,8.53
2018-02-13T03:29:13.565Z,11.35
2018-02-13T03:31:39.931Z,10.32
2018-02-13T03:34:06.320Z,9.25
2018-02-13T03:36:32.832Z,9.13
2018-02-13T03:38:59.242Z,10.00
2018-02-13T03:41:26.342Z,11.15
2018-02-13T03:43:52.705Z,10.03
2018-02-13T03:46:19.070Z,11.10
2018-02-13T03:48:46.179Z,10.10
2018-02-13T03:51:12.548Z,10.20
2018-02-13T03:53:39.630Z,11.00
2018-02-13T03:56:05.991Z,10.83
2018-02-13T03:58:32.351Z,10.40
2018-02-13T04:00:59.461Z,10.60
2018-02-13T04:03:25.879Z,11.07
2018-02-13T04:05:52.234Z,9.63
2018-02-13T04:08:18.582Z,12.13
2018-02-13T04:10:44.950Z,11.27
2018-02-13T04:13:11.321Z,9.70
2018-02-13T04:15:37.721Z,9.90
2018-02-13T04:18:04.069Z,11.67
2018-02-13T04:20:30.420Z,9.43
2018-02-13T04:22:56.774Z,10.93
2018-02-13T04:25:23.130Z,8.83
2018-02-13T04:27:49.495Z,10.10
2018-02-13T04:30:15.866Z,9.50
2018-02-13T04:32:42.224Z,10.80
2018-02-13T04:35:09.326Z,12.40
2018-02-13T04:37:35.797Z,14.03
2018-02-13T04:40:02.195Z,12.13
2018-02-13T04:42:28.621Z,11.37
2018-02-13T04:44:54.991Z,10.70
2018-02-13T04:47:22.087Z,11.23
2018-02-13T04:49:48.496Z,10.70
2018-02-13T04:52:14.900Z,13.57
2018-02-13T04:54:41.997Z,17.07
2018-02-13T04:57:08.371Z,10.10
2018-02-13T04:59:34.730Z,11.87
2018-02-13T05:02:01.104Z,10.82
2018-02-13T05:04:27.488Z,10.60
2018-02-13T05:06:54.629Z,10.97
2018-02-13T05:09:21.737Z,11.90
2018-02-13T05:11:48.257Z,10.82
2018-02-13T05:14:14.630Z,10.88
2018-02-13T05:16:40.990Z,10.93
2018-02-13T05:19:07.412Z,10.93
2018-02-13T05:21:33.749Z,11.95
2018-02-13T05:24:00.137Z,10.52
2018-02-13T05:26:26.516Z,10.52
2018-02-13T05:28:52.873Z,10.17
2018-02-13T05:31:19.218Z,9.80
2018-02-13T05:33:45.570Z,10.07
2018-02-13T05:36:11.938Z,11.02
2018-02-13T05:38:38.315Z,11.90
2018-02-13T05:41:04.901Z,14.25
2018-02-13T05:43:31.335Z,12.65
2018-02-13T05:45:57.701Z,11.85
2018-02-13T05:48:24.071Z,12.40
2018-02-13T05:50:51.191Z,12.37
2018-02-13T05:53:17.676Z,11.27
2018-02-13T05:55:44.762Z,13.57
2018-02-13T05:58:11.186Z,13.30
2018-02-13T06:00:37.619Z,12.70
2018-02-13T06:03:04.702Z,11.00
2018-02-13T06:05:31.050Z,11.70
2018-02-13T06:07:57.422Z,12.47
2018-02-13T06:10:23.820Z,11.50
2018-02-13T06:12:50.933Z,14.93
2018-02-13T06:15:17.307Z,14.90
2018-02-13T06:17:44.413Z,15.00
2018-02-13T06:20:10.780Z,23.00
2018-02-13T06:22:37.890Z,19.17
2018-02-13T06:25:04.276Z,13.77
2018-02-13T06:27:30.650Z,12.80
2018-02-13T06:29:57.012Z,12.17
2018-02-13T06:32:23.371Z,11.30
2018-02-13T06:34:49.733Z,11.20
2018-02-13T06:37:16.078Z,10.63
2018-02-13T06:39:42.877Z,10.47
2018-02-13T06:42:10.087Z,13.10
2018-02-13T06:44:37.198Z,11.77
2018-02-13T06:47:03.565Z,13.20
2018-02-13T06:49:29.922Z,14.37
2018-02-13T06:51:57.007Z,16.87
2018-02-13T06:54:23.374Z,21.17
2018-02-13T06:56:49.834Z,36.03
2018-02-13T06:59:16.941Z,27.33
2018-02-13T07:01:43.354Z,15.20
2018-02-13T07:04:09.715Z,19.57
2018-02-13T07:06:36.085Z,32.03
2018-02-13T07:09:03.259Z,23.50
2018-02-13T07:11:29.670Z,20.90
2018-02-13T07:13:56.805Z,26.90
2018-02-13T07:16:23.203Z,50.63
2018-02-13T07:18:49.580Z,19.73
2018-02-13T07:21:15.959Z,14.10
2018-02-13T07:23:42.379Z,13.57
2018-02-13T07:26:08.752Z,12.33
2018-02-13T07:28:35.130Z,13.57
2018-02-13T07:31:01.516Z,13.07
2018-02-13T07:33:27.885Z,15.60
2018-02-13T07:35:54.290Z,12.33
2018-02-13T07:38:21.006Z,10.17
2018-02-13T07:40:47.382Z,12.07
2018-02-13T07:43:13.738Z,14.97
2018-02-13T07:45:40.163Z,12.70
2018-02-13T07:48:06.555Z,10.90
2018-02-13T07:50:32.939Z,11.77
2018-02-13T07:52:59.311Z,12.90
2018-02-13T07:55:27.158Z,12.90
2018-02-13T07:57:53.595Z,15.30
2018-02-13T08:00:20.764Z,13.47
2018-02-13T08:02:47.114Z,12.40
2018-02-13T08:05:14.222Z,11.70
2018-02-13T08:07:40.583Z,10.93
2018-02-13T08:10:07.690Z,13.00
2018-02-13T08:12:34.071Z,11.00
2018-02-13T08:15:01.212Z,15.40
2018-02-13T08:17:28.309Z,14.20
2018-02-13T08:19:54.713Z,12.50
2018-02-13T08:22:21.101Z,13.67
2018-02-13T08:24:47.468Z,13.83
2018-02-13T08:27:14.868Z,12.10
2018-02-13T08:29:41.292Z,14.30
2018-02-13T08:32:07.675Z,13.40
2018-02-13T08:34:34.762Z,15.40
2018-02-13T08:37:01.130Z,13.80
2018-02-13T08:39:27.496Z,12.47
2018-02-13T08:41:54.604Z,12.40
2018-02-13T08:44:21.773Z,12.13
2018-02-13T08:46:48.139Z,12.10
2018-02-13T08:49:15.026Z,12.60
2018-02-13T08:51:42.144Z,11.10
2018-02-13T08:54:08.519Z,10.97
2018-02-13T08:56:36.371Z,12.50
2018-02-13T08:59:02.737Z,13.47
2018-02-13T09:01:29.932Z,13.83
2018-02-13T09:03:56.293Z,13.73
2018-02-13T09:06:22.646Z,13.93
2018-02-13T09:08:49.260Z,13.17
2018-02-13T09:11:15.617Z,13.60
2018-02-13T09:13:42.738Z,13.63
2018-02-13T09:16:09.134Z,13.67
2018-02-13T09:18:35.515Z,13.60
2018-02-13T09:21:01.889Z,12.70
2018-02-13T09:23:28.264Z,12.20
2018-02-13T09:25:55.362Z,11.10
2018-02-13T09:28:22.455Z,11.63
2018-02-13T09:30:48.821Z,10.57
2018-02-13T09:33:15.930Z,11.40
2018-02-13T09:35:42.287Z,10.30
2018-02-13T09:38:08.656Z,10.93
2018-02-13T09:40:35.741Z,9.30
2018-02-13T09:43:02.163Z,10.90
2018-02-13T09:45:28.533Z,45.93
2018-02-13T09:47:55.657Z,11.63
2018-02-13T09:50:22.074Z,11.13
2018-02-13T09:52:48.441Z,11.50
2018-02-13T09:55:14.801Z,14.53
2018-02-13T09:57:41.899Z,13.73
2018-02-13T10:00:08.282Z,14.47
2018-02-13T10:02:35.440Z,8.70
2018-02-13T10:05:01.894Z,9.30
2018-02-13T10:07:28.264Z,9.87
2018-02-13T10:09:54.626Z,9.90
2018-02-13T10:12:20.993Z,8.50
2018-02-13T10:14:47.372Z,8.80
2018-02-13T10:17:14.637Z,8.40
2018-02-13T10:19:41.783Z,7.77
2018-02-13T10:22:08.923Z,8.53
2018-02-13T10:24:36.062Z,8.20
2018-02-13T10:27:02.459Z,11.13
2018-02-13T10:29:28.835Z,7.80
2018-02-13T10:31:55.259Z,9.60
2018-02-13T10:34:21.689Z,7.57
2018-02-13T10:36:48.074Z,7.97
2018-02-13T10:39:15.822Z,8.53
2018-02-13T10:41:42.918Z,8.30
2018-02-13T10:44:09.276Z,6.17
2018-02-13T10:46:42.445Z,8.20
2018-02-13T10:49:08.850Z,7.33
2018-02-13T10:51:35.240Z,6.30
2018-02-13T10:54:02.430Z,6.93
2018-02-13T10:56:28.779Z,6.87
2018-02-13T10:58:55.138Z,7.20
2018-02-13T11:01:29.051Z,6.77
2018-02-13T11:03:56.173Z,6.37
2018-02-13T11:06:22.568Z,6.30
2018-02-13T11:08:48.935Z,5.60
2018-02-13T11:11:15.350Z,5.70
2018-02-13T11:13:42.418Z,5.50
2018-02-13T11:16:08.833Z,6.23
2018-02-13T11:18:35.169Z,5.80
2018-02-13T11:21:01.540Z,6.73
2018-02-13T11:23:27.901Z,5.10
2018-02-13T11:25:54.263Z,5.67
2018-02-13T11:28:21.589Z,7.40
2018-02-13T11:30:47.969Z,4.73
2018-02-13T11:33:14.354Z,4.70
2018-02-13T11:35:40.719Z,4.47
2018-02-13T11:38:07.094Z,4.57
2018-02-13T11:40:34.185Z,4.83
2018-02-13T11:43:00.560Z,4.30
2018-02-13T11:45:27.705Z,4.40
2018-02-13T11:47:54.800Z,5.53
2018-02-13T11:50:21.163Z,5.40
2018-02-13T11:52:47.528Z,5.83
2018-02-13T11:55:14.667Z,5.53
2018-02-13T11:57:41.796Z,6.83
2018-02-13T12:00:08.292Z,6.33
2018-02-13T12:02:34.658Z,6.00
2018-02-13T12:05:01.019Z,6.43
2018-02-13T12:07:28.134Z,6.47
2018-02-13T12:09:54.570Z,6.60
2018-02-13T12:12:20.935Z,7.10
2018-02-13T12:14:48.034Z,6.53
2018-02-13T12:17:14.411Z,8.30
2018-02-13T12:19:41.535Z,6.70
2018-02-13T12:22:07.920Z,6.93
2018-02-13T12:24:34.310Z,6.80
2018-02-13T12:27:00.691Z,7.00
2018-02-13T12:29:27.248Z,6.90
2018-02-13T12:31:53.637Z,7.30
2018-02-13T12:34:20.744Z,6.90
2018-02-13T12:36:47.350Z,6.27
2018-02-13T12:39:13.722Z,8.27
2018-02-13T12:41:40.135Z,6.27
2018-02-13T12:44:06.528Z,6.67
2018-02-13T12:46:33.712Z,7.53
2018-02-13T12:49:00.102Z,7.17
2018-02-13T12:51:27.215Z,6.10
2018-02-13T12:53:53.662Z,6.50
2018-02-13T12:56:20.023Z,6.43
2018-02-13T12:58:47.178Z,5.17
2018-02-13T13:01:13.654Z,6.20
2018-02-13T13:03:40.065Z,7.00
2018-02-13T13:06:06.454Z,4.70
2018-02-13T13:08:33.571Z,5.73
2018-02-13T13:10:59.949Z,5.57
2018-02-13T13:13:26.305Z,5.33
2018-02-13T13:15:52.729Z,4.33
2018-02-13T13:18:19.089Z,5.30
2018-02-13T13:20:45.447Z,4.40
2018-02-13T13:23:11.812Z,4.50
2018-02-13T13:25:38.187Z,4.20
2018-02-13T13:28:04.572Z,4.63
2018-02-13T13:30:30.970Z,4.37
2018-02-13T13:32:57.309Z,4.00
2018-02-13T13:35:23.736Z,4.10
2018-02-13T13:37:51.583Z,4.70
2018-02-13T13:40:17.948Z,5.10
2018-02-13T13:42:45.063Z,4.83
2018-02-13T13:45:11.466Z,4.33
2018-02-13T13:47:37.843Z,4.90
2018-02-13T13:50:04.211Z,4.77
2018-02-13T13:52:30.636Z,5.00
2018-02-13T13:54:56.999Z,4.90
2018-02-13T13:57:23.369Z,5.77
2018-02-13T13:59:49.734Z,5.83
2018-02-13T14:02:16.192Z,4.60
2018-02-13T14:04:42.619Z,4.23
2018-02-13T14:07:09.018Z,4.77
2018-02-13T14:09:36.194Z,4.93
2018-02-13T14:12:02.626Z,5.10
2018-02-13T14:14:29.005Z,4.87
2018-02-13T14:16:59.445Z,4.30
2018-02-13T14:19:25.891Z,9.60
2018-02-13T14:21:53.017Z,4.90
2018-02-13T14:24:19.388Z,5.27
2018-02-13T14:26:45.790Z,5.73
2018-02-13T14:29:12.930Z,4.83
2018-02-13T14:31:39.304Z,5.83
2018-02-13T14:34:05.683Z,8.80
2018-02-13T14:36:32.132Z,9.13
2018-02-13T14:38:58.498Z,8.53
2018-02-13T14:41:24.851Z,8.50
2018-02-13T14:43:51.202Z,8.70
2018-02-13T14:46:17.550Z,9.27
2018-02-13T14:48:43.907Z,10.20
2018-02-13T14:51:11.002Z,9.37
2018-02-13T14:53:37.371Z,8.83
2018-02-13T14:56:03.755Z,8.17
2018-02-13T14:58:30.116Z,7.90
2018-02-13T15:00:56.478Z,9.10
2018-02-13T15:03:23.748Z,8.60
2018-02-13T15:05:50.110Z,9.93
2018-02-13T15:08:16.462Z,10.63
2018-02-13T15:10:42.806Z,7.63
2018-02-13T15:13:09.198Z,6.60
2018-02-13T15:15:36.626Z,8.10
2018-02-13T15:18:18.652Z,7.33
2018-02-13T15:20:45.039Z,7.83
2018-02-13T15:23:12.146Z,7.47
2018-02-13T15:25:38.540Z,8.87
2018-02-13T15:28:04.948Z,7.70
2018-02-13T15:30:32.083Z,9.07
2018-02-13T15:32:58.497Z,7.70
2018-02-13T15:35:24.868Z,9.20
2018-02-13T15:37:52.030Z,9.97
2018-02-13T15:40:18.407Z,9.83
2018-02-13T15:42:44.787Z,8.90
2018-02-13T15:45:11.925Z,8.27
2018-02-13T15:47:38.315Z,8.30
2018-02-13T15:50:04.734Z,9.43
2018-02-13T15:52:31.078Z,7.93
2018-02-13T15:54:57.438Z,8.80
2018-02-13T15:57:23.810Z,9.83
2018-02-13T15:59:50.186Z,7.50
2018-02-13T16:02:16.571Z,8.13
2018-02-13T16:04:43.666Z,9.60
2018-02-13T16:07:10.024Z,9.13
2018-02-13T16:09:36.409Z,8.73
2018-02-13T16:12:02.810Z,8.17
2018-02-13T16:14:29.917Z,8.60
2018-02-13T16:16:56.314Z,8.03
2018-02-13T16:19:22.668Z,9.10
2018-02-13T16:21:49.056Z,8.90
2018-02-13T16:24:16.146Z,9.53
2018-02-13T16:26:42.504Z,9.47
2018-02-13T16:29:08.866Z,9.60
2018-02-13T16:31:35.226Z,9.93
2018-02-13T16:34:01.573Z,9.43
2018-02-13T16:36:27.968Z,8.93
2018-02-13T16:38:54.362Z,9.87
2018-02-13T16:41:20.724Z,9.30
2018-02-13T16:43:47.828Z,8.43
2018-02-13T16:46:14.229Z,9.40
2018-02-13T16:48:40.617Z,9.53
2018-02-13T16:51:07.713Z,8.77
2018-02-13T16:53:34.061Z,9.10
2018-02-13T16:56:00.432Z,8.73
2018-02-13T16:58:27.517Z,9.20
2018-02-13T17:00:54.769Z,9.10
2018-02-13T17:03:21.178Z,9.57
2018-02-13T17:05:48.309Z,10.00
2018-02-13T17:08:15.414Z,9.90
2018-02-13T17:10:41.773Z,9.67
2018-02-13T17:13:08.118Z,9.73
2018-02-13T17:15:35.223Z,10.80
2018-02-13T17:18:01.586Z,12.50
2018-02-13T17:20:27.979Z,9.40
2018-02-13T17:22:54.389Z,9.73
2018-02-13T17:25:20.730Z,10.27
2018-02-13T17:27:47.092Z,9.90
2018-02-13T17:30:13.467Z,11.13
2018-02-13T17:32:40.575Z,11.10
2018-02-13T17:35:06.932Z,10.43
2018-02-13T17:37:34.069Z,12.10
2018-02-13T17:40:00.508Z,12.20
2018-02-13T17:42:26.868Z,11.13
2018-02-13T17:44:53.963Z,11.27
2018-02-13T17:47:20.372Z,11.83
2018-02-13T17:49:46.743Z,11.60
2018-02-13T17:52:13.090Z,11.07
2018-02-13T17:54:40.186Z,12.53
2018-02-13T17:57:06.533Z,12.07
2018-02-13T17:59:32.876Z,14.00
2018-02-13T18:01:59.247Z,21.77
2018-02-13T18:04:26.379Z,12.97
2018-02-13T18:06:52.813Z,11.87
2018-02-13T18:09:19.908Z,11.57
2018-02-13T18:11:46.270Z,11.90
2018-02-13T18:14:12.683Z,12.60
2018-02-13T18:16:39.083Z,11.73
2018-02-13T18:19:05.457Z,11.82
2018-02-13T18:21:31.845Z,11.65
2018-02-13T18:23:58.214Z,12.82
2018-02-13T18:26:24.572Z,12.00
2018-02-13T18:28:50.973Z,15.75
2018-02-13T18:31:17.350Z,13.62
2018-02-13T18:33:44.457Z,15.77
2018-02-13T18:36:10.825Z,14.52
2018-02-13T18:38:37.204Z,15.10
2018-02-13T18:41:03.616Z,14.77
2018-02-13T18:43:30.763Z,12.90
2018-02-13T18:45:57.152Z,12.52
2018-02-13T18:48:23.530Z,13.13
2018-02-13T18:50:50.058Z,12.98
2018-02-13T18:53:16.454Z,16.40
2018-02-13T18:55:42.823Z,17.95
2018-02-13T18:58:09.222Z,15.85
2018-02-13T19:00:35.608Z,13.77
2018-02-13T19:03:01.953Z,11.32
2018-02-13T19:05:28.319Z,11.60
2018-02-13T19:07:54.679Z,10.30
2018-02-13T19:10:21.107Z,12.68
2018-02-13T19:12:47.471Z,15.07
2018-02-13T19:15:13.827Z,18.12
2018-02-13T19:17:40.177Z,15.23
2018-02-13T19:20:06.538Z,17.70
2018-02-13T19:22:32.902Z,14.82
2018-02-13T19:24:59.265Z,17.30
2018-02-13T19:27:25.636Z,16.67
2018-02-13T19:29:52.097Z,17.48
2018-02-13T19:32:18.498Z,18.58
2018-02-13T19:34:44.942Z,18.08
2018-02-13T19:37:11.369Z,17.02
2018-02-13T19:39:37.774Z,15.90
2018-02-13T19:42:05.070Z,16.50
2018-02-13T19:44:33.112Z,15.15
2018-02-13T19:47:00.204Z,16.67
2018-02-13T19:49:26.569Z,14.02
2018-02-13T19:51:53.004Z,14.07
2018-02-13T19:54:20.349Z,14.60
2018-02-13T19:56:46.705Z,18.15
2018-02-13T19:59:13.839Z,15.82
2018-02-13T20:01:40.937Z,17.33
2018-02-13T20:04:07.307Z,16.67
2018-02-13T20:06:33.668Z,17.17
2018-02-13T20:09:00.816Z,19.33
2018-02-13T20:11:27.208Z,18.33
2018-02-13T20:13:53.628Z,20.30
2018-02-13T20:16:20.027Z,18.08
2018-02-13T20:18:46.441Z,19.10
2018-02-13T20:21:13.541Z,21.87
2018-02-13T20:23:39.898Z,27.58
2018-02-13T20:26:06.275Z,23.55
2018-02-13T20:28:32.645Z,22.77
2018-02-13T20:30:59.044Z,22.60
2018-02-13T20:33:25.427Z,22.65
2018-02-13T20:35:51.795Z,22.02
2018-02-13T20:38:18.171Z,25.42
2018-02-13T20:40:46.053Z,22.27
2018-02-13T20:43:13.168Z,21.90
2018-02-13T20:45:39.530Z,21.05
2018-02-13T20:48:05.895Z,21.60
2018-02-13T20:50:32.263Z,21.23
2018-02-13T20:52:58.638Z,20.15
2018-02-13T20:55:25.845Z,26.75
2018-02-13T20:57:52.204Z,24.63
2018-02-13T21:00:18.683Z,22.75
2018-02-13T21:02:45.035Z,22.40
2018-02-13T21:05:11.417Z,21.60
2018-02-13T21:07:38.534Z,22.30
2018-02-13T21:10:04.895Z,21.77
2018-02-13T21:12:31.997Z,19.98
2018-02-13T21:14:58.358Z,22.33
2018-02-13T21:17:24.731Z,18.37
2018-02-13T21:19:51.089Z,19.67
2018-02-13T21:22:17.463Z,20.17
2018-02-13T21:24:43.830Z,20.00
2018-02-13T21:27:10.225Z,19.77
2018-02-13T21:29:36.585Z,20.08
2018-02-13T21:32:02.973Z,20.33
2018-02-13T21:34:29.322Z,21.48
2018-02-13T21:36:55.682Z,20.95
2018-02-13T21:39:22.090Z,19.67
2018-02-13T21:41:49.223Z,22.27
2018-02-13T21:44:17.085Z,19.92
2018-02-13T21:46:43.458Z,19.25
2018-02-13T21:49:09.825Z,21.00
2018-02-13T21:51:36.195Z,20.27
2018-02-13T21:54:02.562Z,20.08
2018-02-13T21:56:28.967Z,20.23
2018-02-13T21:58:56.174Z,18.08
2018-02-13T22:01:22.549Z,19.23
2018-02-13T22:03:49.732Z,19.15
2018-02-13T22:06:16.170Z,18.52
2018-02-13T22:08:42.532Z,18.83
2018-02-13T22:11:08.908Z,18.40
2018-02-13T22:13:35.272Z,17.58
2018-02-13T22:16:01.682Z,20.55
2018-02-13T22:18:28.059Z,21.17
2018-02-13T22:20:54.419Z,21.90
2018-02-13T22:23:21.539Z,21.85
2018-02-13T22:25:47.903Z,25.10
2018-02-13T22:28:15.000Z,23.23
2018-02-13T22:30:41.378Z,24.33
2018-02-13T22:33:08.491Z,21.98
2018-02-13T22:35:34.861Z,20.60
2018-02-13T22:38:02.805Z,21.50
2018-02-13T22:40:29.170Z,22.75
2018-02-13T22:42:55.550Z,20.88
2018-02-13T22:45:21.952Z,18.48
2018-02-13T22:47:48.335Z,15.82
2018-02-13T22:50:14.705Z,16.35
2018-02-13T22:52:41.107Z,14.18
2018-02-13T22:55:08.235Z,16.10
2018-02-13T22:57:34.617Z,15.32
2018-02-13T23:00:00.980Z,17.17
2018-02-13T23:02:27.362Z,15.02
2018-02-13T23:04:54.533Z,15.67
2018-02-13T23:07:20.911Z,14.43
2018-02-13T23:09:47.377Z,14.82
2018-02-13T23:12:13.797Z,14.45
2018-02-13T23:14:40.161Z,14.40
2018-02-13T23:17:06.522Z,14.60
2018-02-13T23:19:32.893Z,14.50
2018-02-13T23:21:59.252Z,15.33
2018-02-13T23:24:25.675Z,15.50
2018-02-13T23:26:52.102Z,13.90
2018-02-13T23:29:18.506Z,14.40
2018-02-13T23:31:45.631Z,14.60
2018-02-13T23:34:12.011Z,16.33
2018-02-13T23:36:39.114Z,14.63
2018-02-13T23:39:05.473Z,16.47
2018-02-13T23:41:31.830Z,14.13
2018-02-13T23:43:58.239Z,17.05
2018-02-13T23:46:24.610Z,16.67
2018-02-13T23:48:50.975Z,16.20
2018-02-13T23:51:17.343Z,15.95
2018-02-13T23:53:44.446Z,16.00
2018-02-13T23:56:11.543Z,17.80
2018-02-13T23:58:38.673Z,16.87
